Time;durP1;ratioP1;P1;durP2;ratioP2;P2;SDS_P1;SDS_P2;PMS_P1;PMS_P2;Temp;Humidity;BMP_temperature;BMP_pressure;BME280_temperature;BME280_humidity;BME280_pressure;Samples;Min_cycle;Max_cycle;Signal;HPM_P1;HPM_P2
2023/10/05 04:01:43;;;;;;;4.17;2.03;;;13.40;99.90;;;;;;5357634;23;20556;-71
2023/10/05 04:04:15;;;;;;;2.00;1.93;;;13.40;99.90;;;;;;4972488;28;20491;-70
2023/10/05 04:06:42;;;;;;;4.43;2.60;;;13.40;99.90;;;;;;4968540;28;20459;-71
2023/10/05 04:09:15;;;;;;;2.20;2.00;;;13.40;99.90;;;;;;4971058;28;20464;-70
2023/10/05 04:11:43;;;;;;;3.07;2.67;;;13.50;99.90;;;;;;4967877;28;20930;-70
2023/10/05 04:14:10;;;;;;;4.00;2.07;;;13.50;99.90;;;;;;4972459;28;20499;-71
2023/10/05 04:16:36;;;;;;;2.00;1.80;;;13.50;99.90;;;;;;4968981;28;20471;-71
2023/10/05 04:19:05;;;;;;;4.33;2.10;;;13.50;99.90;;;;;;4969643;28;20467;-71
2023/10/05 04:21:32;;;;;;;2.20;2.10;;;13.60;99.90;;;;;;4967945;28;20871;-72
2023/10/05 04:23:59;;;;;;;4.20;2.13;;;13.60;99.90;;;;;;4972272;28;20464;-71
2023/10/05 04:26:32;;;;;;;4.50;2.27;;;13.60;99.90;;;;;;4972495;28;20813;-72
2023/10/05 04:29:04;;;;;;;1.90;1.80;;;13.60;99.90;;;;;;4971841;28;20552;-71
2023/10/05 04:31:32;;;;;;;2.63;2.00;;;13.60;99.90;;;;;;4972320;28;20482;-70
2023/10/05 04:34:00;;;;;;;3.17;2.80;;;13.60;99.90;;;;;;4969037;28;20523;-71
2023/10/05 04:36:30;;;;;;;2.60;1.63;;;13.60;99.90;;;;;;4972386;28;20459;-71
2023/10/05 04:38:57;;;;;;;2.70;2.10;;;13.60;99.90;;;;;;4969233;28;20560;-71
2023/10/05 04:41:28;;;;;;;2.20;2.10;;;13.60;99.90;;;;;;4972010;28;20492;-72
2023/10/05 04:43:56;;;;;;;3.97;2.13;;;13.60;99.90;;;;;;4972177;28;20471;-73
2023/10/05 04:46:23;;;;;;;2.27;2.17;;;13.60;99.90;;;;;;4970634;28;20471;-70
2023/10/05 04:49:07;;;;;;;3.97;2.40;;;13.60;99.90;;;;;;4974331;28;20468;-71
2023/10/05 04:51:38;;;;;;;5.63;2.27;;;13.60;99.90;;;;;;4975639;28;20479;-72
2023/10/05 04:54:06;;;;;;;7.10;3.10;;;13.60;99.90;;;;;;4973635;28;20467;-72
2023/10/05 04:56:40;;;;;;;9.00;2.27;;;13.60;99.90;;;;;;4975500;28;20523;-71
2023/10/05 04:59:25;;;;;;;2.10;2.00;;;13.60;99.90;;;;;;4975930;28;20829;-72
2023/10/05 05:02:00;;;;;;;3.70;2.50;;;13.60;99.90;;;;;;4974154;28;20491;-71
2023/10/05 05:04:41;;;;;;;2.63;2.20;;;13.60;99.90;;;;;;4973447;28;20697;-72
2023/10/05 05:07:09;;;;;;;2.53;2.23;;;13.60;99.90;;;;;;4967735;28;22286;-72
2023/10/05 05:09:38;;;;;;;3.77;2.60;;;13.60;99.90;;;;;;4973310;28;20463;-72
2023/10/05 05:12:08;;;;;;;1.63;1.50;;;13.70;99.90;;;;;;4975280;28;20503;-71
2023/10/05 05:14:41;;;;;;;4.27;2.17;;;13.70;99.90;;;;;;4972013;28;20492;-72
2023/10/05 05:17:10;;;;;;;4.63;2.50;;;13.70;99.90;;;;;;4967514;28;20472;-71
2023/10/05 05:19:39;;;;;;;3.17;2.33;;;13.60;99.90;;;;;;4975316;28;20466;-72
2023/10/05 05:22:06;;;;;;;2.93;2.00;;;13.70;99.90;;;;;;4973118;28;20494;-71
2023/10/05 05:24:34;;;;;;;8.50;2.13;;;13.70;99.90;;;;;;4973701;28;20566;-71
2023/10/05 05:27:03;;;;;;;5.10;1.90;;;13.70;99.90;;;;;;4975283;28;20472;-72
2023/10/05 05:29:32;;;;;;;2.07;1.87;;;13.60;99.90;;;;;;4975452;28;20850;-72
2023/10/05 05:32:06;;;;;;;1.80;1.80;;;13.70;99.90;;;;;;4975128;28;20488;-72
2023/10/05 05:34:32;;;;;;;1.93;1.77;;;13.70;99.90;;;;;;4973937;28;20490;-71
2023/10/05 05:36:59;;;;;;;2.33;1.90;;;13.70;99.90;;;;;;4971611;28;20508;-72
2023/10/05 05:39:26;;;;;;;4.53;2.03;;;13.70;99.90;;;;;;4974880;28;20875;-70
2023/10/05 05:41:59;;;;;;;5.00;2.33;;;13.70;99.90;;;;;;4972481;28;20972;-72
2023/10/05 05:44:28;;;;;;;4.17;2.50;;;13.70;99.90;;;;;;4973260;28;20878;-71
2023/10/05 05:46:59;;;;;;;5.33;2.10;;;13.70;99.90;;;;;;4970614;28;21046;-72
2023/10/05 05:49:27;;;;;;;3.53;2.57;;;13.70;99.90;;;;;;4974751;28;20471;-72
2023/10/05 05:51:55;;;;;;;2.47;2.30;;;13.80;99.90;;;;;;4972732;28;20498;-72
2023/10/05 05:54:24;;;;;;;4.77;2.43;;;13.90;99.90;;;;;;4973003;28;20471;-72
2023/10/05 05:56:54;;;;;;;5.30;2.13;;;13.90;99.90;;;;;;4972328;28;20849;-71
2023/10/05 05:59:23;;;;;;;5.40;2.30;;;14.00;99.90;;;;;;4971087;28;20499;-72
2023/10/05 06:01:50;;;;;;;4.43;2.80;;;14.00;99.90;;;;;;4971441;28;20928;-70
2023/10/05 06:04:17;;;;;;;3.93;2.63;;;14.00;99.90;;;;;;4969370;28;20846;-71
2023/10/05 06:06:44;;;;;;;3.63;2.90;;;14.00;99.90;;;;;;4971619;28;20499;-72
2023/10/05 06:09:11;;;;;;;5.40;2.60;;;14.10;99.90;;;;;;4970598;28;20566;-71
2023/10/05 06:11:40;;;;;;;5.27;2.57;;;14.20;99.90;;;;;;4971142;28;20488;-72
2023/10/05 06:14:07;;;;;;;4.17;2.27;;;14.20;99.90;;;;;;4965341;28;20554;-71
2023/10/05 06:16:35;;;;;;;5.20;2.60;;;14.20;99.90;;;;;;4973479;28;20470;-72
2023/10/05 06:19:01;;;;;;;2.60;2.40;;;14.20;99.90;;;;;;4973327;28;20855;-71
2023/10/05 06:21:29;;;;;;;2.47;2.27;;;14.30;99.90;;;;;;4973919;28;20492;-71
2023/10/05 06:23:55;;;;;;;3.33;3.03;;;14.30;99.90;;;;;;4974063;28;20471;-72
2023/10/05 06:26:24;;;;;;;4.87;2.57;;;14.30;99.90;;;;;;4974197;28;20468;-71
2023/10/05 06:28:50;;;;;;;2.77;2.00;;;14.40;99.90;;;;;;4970900;28;21006;-72
2023/10/05 06:31:17;;;;;;;5.37;2.33;;;14.40;99.90;;;;;;4973783;28;20487;-70
2023/10/05 06:33:46;;;;;;;2.80;2.53;;;14.40;99.90;;;;;;4972000;28;20454;-72
2023/10/05 06:36:13;;;;;;;3.50;2.10;;;14.50;99.90;;;;;;4973939;28;20534;-70
2023/10/05 06:38:40;;;;;;;3.83;2.90;;;14.50;99.90;;;;;;4971740;28;20474;-72
2023/10/05 06:41:07;;;;;;;2.60;2.30;;;14.50;99.90;;;;;;4972746;28;20489;-72
2023/10/05 06:43:35;;;;;;;6.80;3.00;;;14.40;99.90;;;;;;4971919;28;20491;-72
2023/10/05 06:46:09;;;;;;;6.50;2.90;;;14.50;99.90;;;;;;4972827;28;20475;-71
2023/10/05 06:48:36;;;;;;;7.00;2.27;;;14.50;99.90;;;;;;4973654;28;20552;-72
2023/10/05 06:51:04;;;;;;;9.07;3.00;;;14.50;99.90;;;;;;4973097;28;20484;-72
2023/10/05 06:53:31;;;;;;;8.27;3.13;;;14.60;99.90;;;;;;4973425;28;20456;-72
2023/10/05 06:55:58;;;;;;;4.97;2.30;;;14.60;99.90;;;;;;4972290;28;20985;-71
2023/10/05 06:58:24;;;;;;;2.67;2.47;;;14.60;99.90;;;;;;4973708;28;20467;-72
2023/10/05 07:00:52;;;;;;;4.83;1.87;;;14.60;99.90;;;;;;4972720;28;20503;-72
2023/10/05 07:03:20;;;;;;;13.47;2.63;;;14.70;99.90;;;;;;4972663;28;20520;-72
2023/10/05 07:05:47;;;;;;;4.10;2.40;;;14.70;99.90;;;;;;4972419;28;20850;-72
2023/10/05 07:08:15;;;;;;;3.50;2.30;;;14.70;99.90;;;;;;4971864;28;20478;-71
2023/10/05 07:10:42;;;;;;;5.87;3.30;;;14.80;99.90;;;;;;4972246;28;20528;-69
2023/10/05 07:13:09;;;;;;;2.67;2.10;;;14.80;99.90;;;;;;4971722;28;20464;-72
2023/10/05 07:15:36;;;;;;;4.03;2.30;;;14.80;99.90;;;;;;4970799;28;20474;-72
2023/10/05 07:18:04;;;;;;;6.10;2.33;;;14.80;99.90;;;;;;4973248;28;20527;-72
2023/10/05 07:20:31;;;;;;;5.20;2.43;;;14.90;99.90;;;;;;4972086;28;20522;-72
2023/10/05 07:22:59;;;;;;;5.30;2.80;;;14.90;99.90;;;;;;4972222;28;20484;-72
2023/10/05 07:25:27;;;;;;;2.70;2.50;;;14.90;99.90;;;;;;4970534;28;20567;-72
2023/10/05 07:27:53;;;;;;;4.50;2.77;;;14.90;99.90;;;;;;4969753;28;20464;-72
2023/10/05 07:30:20;;;;;;;5.30;2.43;;;14.90;99.90;;;;;;4970173;28;20469;-72
2023/10/05 07:32:47;;;;;;;2.40;1.97;;;14.90;99.90;;;;;;4972642;28;20537;-72
2023/10/05 07:35:14;;;;;;;6.20;2.40;;;14.90;99.90;;;;;;4965286;28;20466;-72
2023/10/05 07:37:41;;;;;;;3.03;2.63;;;14.90;99.90;;;;;;4972543;28;20470;-72
2023/10/05 07:40:08;;;;;;;4.50;2.00;;;15.00;99.90;;;;;;4963830;28;20576;-72
2023/10/05 07:42:37;;;;;;;7.63;2.57;;;15.00;99.90;;;;;;4971889;28;20519;-72
2023/10/05 07:45:07;;;;;;;5.83;2.57;;;15.00;99.90;;;;;;4970052;28;20476;-72
2023/10/05 07:47:33;;;;;;;5.23;3.03;;;15.10;99.90;;;;;;4970936;28;20488;-72
2023/10/05 07:50:00;;;;;;;3.37;2.27;;;15.10;99.90;;;;;;4971052;28;20891;-72
2023/10/05 07:52:27;;;;;;;2.40;1.93;;;15.10;99.90;;;;;;4971421;28;20498;-72
2023/10/05 07:54:55;;;;;;;6.50;1.83;;;15.10;99.90;;;;;;4972112;28;20470;-72
2023/10/05 07:57:21;;;;;;;6.03;3.30;;;15.10;99.90;;;;;;4972864;28;20482;-72
2023/10/05 07:59:50;;;;;;;3.50;2.30;;;15.10;99.90;;;;;;4973266;28;20863;-73
2023/10/05 08:02:18;;;;;;;4.50;2.90;;;15.10;99.90;;;;;;4972994;28;20503;-73
2023/10/05 08:04:45;;;;;;;4.27;3.03;;;15.00;99.90;;;;;;4972244;28;20920;-73
2023/10/05 08:07:12;;;;;;;2.90;2.70;;;14.90;99.90;;;;;;4972739;28;20466;-73
2023/10/05 08:09:42;;;;;;;4.67;2.30;;;14.90;99.90;;;;;;4972611;28;20538;-72
2023/10/05 08:12:09;;;;;;;3.73;3.37;;;14.90;99.90;;;;;;4965221;28;20900;-72
2023/10/05 08:14:36;;;;;;;5.70;3.07;;;14.80;99.90;;;;;;4971676;28;20476;-73
2023/10/05 08:17:05;;;;;;;10.03;3.90;;;14.80;99.90;;;;;;4972422;28;20472;-73
2023/10/05 08:19:31;;;;;;;3.97;3.40;;;14.70;99.90;;;;;;4972422;28;20466;-72
2023/10/05 08:21:58;;;;;;;2.53;2.43;;;14.70;99.90;;;;;;4972097;28;20480;-72
2023/10/05 08:24:25;;;;;;;4.27;3.23;;;14.70;99.90;;;;;;4974925;28;21449;-73
2023/10/05 08:26:53;;;;;;;3.00;2.80;;;14.60;99.90;;;;;;4976102;28;20461;-74
2023/10/05 08:29:22;;;;;;;3.03;2.20;;;14.60;99.90;;;;;;4973883;28;20468;-74
2023/10/05 08:31:49;;;;;;;3.23;2.83;;;14.60;99.90;;;;;;4972569;28;21107;-75
2023/10/05 08:34:20;;;;;;;3.13;2.93;;;14.50;99.90;;;;;;4973093;28;20476;-73
2023/10/05 08:36:49;;;;;;;3.37;2.57;;;14.50;99.90;;;;;;4974621;28;20467;-73
2023/10/05 08:39:16;;;;;;;3.20;2.90;;;14.50;99.90;;;;;;4975210;28;20472;-73
2023/10/05 08:41:44;;;;;;;4.27;3.33;;;14.40;99.90;;;;;;4974884;28;20494;-72
2023/10/05 08:44:26;;;;;;;7.23;3.83;;;14.50;99.90;;;;;;4972843;28;20584;-73
2023/10/05 08:46:55;;;;;;;4.10;3.70;;;14.50;99.90;;;;;;4971644;28;20507;-73
2023/10/05 08:49:24;;;;;;;2.77;2.57;;;14.40;99.90;;;;;;4974025;28;20810;-74
2023/10/05 08:51:51;;;;;;;6.20;3.20;;;14.50;99.90;;;;;;4974978;28;20542;-74
2023/10/05 08:54:21;;;;;;;5.47;2.97;;;14.50;99.90;;;;;;4974907;28;20487;-73
2023/10/05 08:56:52;;;;;;;5.53;3.03;;;14.40;99.90;;;;;;4972330;28;20528;-74
2023/10/05 08:59:19;;;;;;;3.50;3.27;;;14.40;99.90;;;;;;4975354;28;20472;-74
2023/10/05 09:01:46;;;;;;;8.97;3.07;;;14.40;99.90;;;;;;4972270;28;20499;-74
2023/10/05 09:04:29;;;;;;;3.70;3.40;;;14.40;99.90;;;;;;4974967;28;20530;-72
2023/10/05 09:06:59;;;;;;;4.07;3.23;;;14.40;99.90;;;;;;4974091;28;20468;-71
2023/10/05 09:09:37;;;;;;;3.27;3.00;;;14.40;99.90;;;;;;4973724;28;20527;-71
2023/10/05 09:12:26;;;;;;;3.33;3.03;;;14.40;99.90;;;;;;4973776;28;20479;-71
2023/10/05 09:15:06;;;;;;;3.30;3.00;;;14.30;99.90;;;;;;4972697;28;20464;-71
2023/10/05 09:17:35;;;;;;;4.87;3.90;;;14.30;99.90;;;;;;4973548;28;20470;-71
2023/10/05 09:20:21;;;;;;;5.00;3.43;;;14.30;99.90;;;;;;4974181;28;20516;-71
2023/10/05 09:22:51;;;;;;;5.27;3.03;;;14.30;99.90;;;;;;4973149;28;20502;-70
2023/10/05 09:25:26;;;;;;;6.50;2.83;;;14.40;99.90;;;;;;4972889;28;20547;-68
2023/10/05 09:27:55;;;;;;;6.63;3.70;;;14.30;99.90;;;;;;4972215;28;20858;-71
2023/10/05 09:30:26;;;;;;;3.00;2.80;;;14.30;99.90;;;;;;4973809;28;20472;-71
2023/10/05 09:33:06;;;;;;;3.23;2.93;;;14.40;99.90;;;;;;4974182;28;20539;-71
2023/10/05 09:35:33;;;;;;;4.80;3.40;;;14.40;99.90;;;;;;4972423;28;20467;-71
2023/10/05 09:38:01;;;;;;;3.97;3.07;;;14.40;99.90;;;;;;4974771;28;20466;-72
2023/10/05 09:40:29;;;;;;;3.73;3.53;;;14.40;99.90;;;;;;4973998;28;20460;-72
2023/10/05 09:42:57;;;;;;;3.90;3.60;;;14.40;99.90;;;;;;4970811;28;20491;-72
2023/10/05 09:45:27;;;;;;;6.80;3.60;;;14.40;99.90;;;;;;4968043;28;20464;-71
2023/10/05 09:47:55;;;;;;;2.50;2.00;;;14.40;99.90;;;;;;4974926;28;20472;-72
2023/10/05 09:50:26;;;;;;;1.53;1.43;;;14.20;99.90;;;;;;4975725;28;20471;-71
2023/10/05 09:52:56;;;;;;;1.40;1.00;;;14.00;99.90;;;;;;4980996;28;20460;-71
2023/10/05 09:55:25;;;;;;;3.97;1.47;;;13.90;99.90;;;;;;4973221;28;20490;-70
2023/10/05 09:57:53;;;;;;;1.40;1.07;;;13.70;99.90;;;;;;4975069;28;20973;-71
2023/10/05 10:00:47;;;;;;;0.87;0.87;;;13.60;99.90;;;;;;4970627;28;20471;-70
2023/10/05 10:03:14;;;;;;;2.30;0.93;;;13.60;99.90;;;;;;4965485;28;20484;-72
2023/10/05 10:05:48;;;;;;;3.10;1.20;;;13.60;99.90;;;;;;4974395;28;20553;-71
2023/10/05 10:08:21;;;;;;;0.90;0.90;;;13.60;99.90;;;;;;4966074;28;20515;-71
2023/10/05 10:11:00;;;;;;;1.90;0.60;;;13.60;99.90;;;;;;4971867;28;20499;-71
2023/10/05 10:13:29;;;;;;;1.47;1.30;;;13.50;99.90;;;;;;4972174;28;20459;-71
2023/10/05 10:15:58;;;;;;;1.17;0.83;;;13.50;99.90;;;;;;4972682;28;20550;-71
2023/10/05 10:18:37;;;;;;;0.83;0.83;;;13.60;99.90;;;;;;4973378;28;20468;-70
2023/10/05 10:21:09;;;;;;;1.10;1.00;;;13.60;99.90;;;;;;4970551;28;20501;-71
2023/10/05 10:23:39;;;;;;;0.80;0.80;;;13.80;99.90;;;;;;4973615;28;20492;-71
2023/10/05 10:26:16;;;;;;;0.70;0.60;;;14.00;99.90;;;;;;4970711;28;20468;-72
2023/10/05 10:28:49;;;;;;;0.70;0.70;;;14.20;99.90;;;;;;4973464;28;20501;-70
2023/10/05 10:31:17;;;;;;;1.00;0.83;;;14.40;99.90;;;;;;4963156;28;20485;-70
2023/10/05 10:33:50;;;;;;;1.10;1.10;;;14.50;99.90;;;;;;4970796;28;20458;-72
2023/10/05 10:36:21;;;;;;;0.77;0.77;;;14.60;99.90;;;;;;4971509;28;20489;-72
2023/10/05 10:38:50;;;;;;;1.20;1.20;;;14.70;99.90;;;;;;4974916;28;20885;-71
2023/10/05 10:41:21;;;;;;;1.30;1.30;;;14.80;99.90;;;;;;4975841;28;20479;-72
2023/10/05 10:43:52;;;;;;;1.30;1.30;;;14.80;99.90;;;;;;4975809;28;20569;-71
2023/10/05 10:46:34;;;;;;;2.63;1.60;;;14.80;99.90;;;;;;4973527;28;21031;-72
2023/10/05 10:49:01;;;;;;;3.70;1.10;;;14.70;99.90;;;;;;4973200;28;20930;-72
2023/10/05 10:51:31;;;;;;;1.97;1.87;;;14.80;99.90;;;;;;4971654;28;20563;-71
2023/10/05 10:53:59;;;;;;;2.20;2.03;;;14.80;99.90;;;;;;4970543;28;20577;-71
2023/10/05 10:56:34;;;;;;;1.47;1.47;;;14.90;99.90;;;;;;4971149;28;20470;-72
2023/10/05 10:59:11;;;;;;;1.20;1.20;;;15.00;99.90;;;;;;4972431;28;20461;-72
2023/10/05 11:01:44;;;;;;;1.47;1.47;;;15.10;99.90;;;;;;4970539;28;20505;-71
2023/10/05 11:04:23;;;;;;;1.20;1.10;;;15.10;99.90;;;;;;4968613;28;20565;-72
2023/10/05 11:06:59;;;;;;;1.53;1.53;;;15.30;99.90;;;;;;4970915;28;20473;-69
2023/10/05 11:09:35;;;;;;;1.00;0.93;;;15.50;99.90;;;;;;4972664;28;20485;-71
2023/10/05 11:12:11;;;;;;;1.30;1.30;;;15.60;99.90;;;;;;4971974;28;20494;-72
2023/10/05 11:14:40;;;;;;;1.37;1.30;;;15.70;99.90;;;;;;4969264;28;20851;-71
2023/10/05 11:17:23;;;;;;;1.37;1.00;;;15.70;99.90;;;;;;4972062;28;20467;-72
2023/10/05 11:19:50;;;;;;;1.90;1.13;;;15.70;99.90;;;;;;4970751;28;20867;-72
2023/10/05 11:22:23;;;;;;;0.87;0.87;;;15.70;99.90;;;;;;4965470;28;20495;-72
2023/10/05 11:25:15;;;;;;;0.87;0.87;;;15.60;99.90;;;;;;4969806;28;20510;-69
2023/10/05 11:27:48;;;;;;;1.50;1.40;;;15.60;99.90;;;;;;4972107;28;20545;-72
2023/10/05 11:30:21;;;;;;;2.50;1.23;;;15.60;99.90;;;;;;4971737;28;20828;-71
2023/10/05 11:32:54;;;;;;;2.00;1.07;;;15.70;99.90;;;;;;4965025;28;20512;-71
2023/10/05 11:35:28;;;;;;;1.13;0.87;;;15.60;99.90;;;;;;4966269;28;20475;-72
2023/10/05 11:37:59;;;;;;;1.60;1.50;;;15.60;99.90;;;;;;4972082;28;20457;-71
2023/10/05 11:40:34;;;;;;;1.40;1.30;;;15.60;99.90;;;;;;4971696;28;20969;-72
2023/10/05 11:43:06;;;;;;;1.60;0.80;;;15.60;99.90;;;;;;4971884;28;20552;-71
2023/10/05 11:45:33;;;;;;;1.23;1.23;;;15.80;99.90;;;;;;4971979;28;20474;-71
2023/10/05 11:48:11;;;;;;;1.90;1.23;;;15.90;99.90;;;;;;4972107;28;20474;-72
2023/10/05 11:50:41;;;;;;;3.90;1.83;;;16.00;99.90;;;;;;4971030;28;20498;-72
2023/10/05 11:53:11;;;;;;;2.97;1.43;;;16.10;99.90;;;;;;4969158;28;20476;-72
2023/10/05 11:55:39;;;;;;;2.10;1.50;;;16.10;99.90;;;;;;4971810;28;20463;-72
2023/10/05 11:58:08;;;;;;;2.53;0.97;;;16.10;99.90;;;;;;4975989;28;20463;-72
2023/10/05 12:00:35;;;;;;;2.60;1.70;;;16.20;99.90;;;;;;4972153;28;20506;-71
2023/10/05 12:03:02;;;;;;;3.67;0.73;;;16.20;99.90;;;;;;4973021;28;20482;-71
2023/10/05 12:05:30;;;;;;;1.23;0.73;;;16.20;99.90;;;;;;4972694;28;20487;-72
2023/10/05 12:07:59;;;;;;;1.23;0.90;;;16.30;99.90;;;;;;4975961;28;20525;-72
2023/10/05 12:10:26;;;;;;;5.20;1.33;;;16.30;99.90;;;;;;4974131;28;20475;-72
2023/10/05 12:12:52;;;;;;;1.50;1.20;;;16.40;99.90;;;;;;4974545;28;20471;-72
2023/10/05 12:15:22;;;;;;;2.40;2.03;;;16.50;99.90;;;;;;4975227;28;20487;-71
2023/10/05 12:17:49;;;;;;;0.90;0.90;;;16.70;99.90;;;;;;4973303;28;20553;-72
2023/10/05 12:20:16;;;;;;;1.67;1.07;;;16.90;99.90;;;;;;4974153;28;20978;-72
2023/10/05 12:22:45;;;;;;;7.13;0.97;;;17.00;99.90;;;;;;4972857;28;20943;-70
2023/10/05 12:25:14;;;;;;;2.00;1.10;;;17.00;99.90;;;;;;4975454;28;20577;-71
2023/10/05 12:27:41;;;;;;;1.37;0.90;;;17.00;99.90;;;;;;4974968;28;20558;-71
2023/10/05 12:30:11;;;;;;;1.80;1.07;;;17.00;99.90;;;;;;4970593;28;20476;-72
2023/10/05 12:32:40;;;;;;;3.87;0.90;;;17.10;99.90;;;;;;4975371;28;20468;-71
2023/10/05 12:35:13;;;;;;;0.80;0.60;;;17.10;99.90;;;;;;4974474;28;20889;-71
2023/10/05 12:37:40;;;;;;;1.10;1.10;;;17.20;99.90;;;;;;4975930;28;20941;-72
2023/10/05 12:40:17;;;;;;;0.90;0.90;;;17.20;99.90;;;;;;4975054;28;20468;-72
2023/10/05 12:42:51;;;;;;;1.60;1.60;;;17.20;99.90;;;;;;4974248;28;20526;-71
2023/10/05 12:45:20;;;;;;;7.67;2.43;;;17.30;99.90;;;;;;4971704;28;20494;-71
2023/10/05 12:47:52;;;;;;;0.90;0.90;;;17.30;99.90;;;;;;4968649;28;20468;-71
2023/10/05 12:50:20;;;;;;;1.40;1.10;;;17.20;99.90;;;;;;4975208;28;20511;-72
2023/10/05 12:52:50;;;;;;;1.63;1.00;;;17.30;99.90;;;;;;4975430;28;20467;-72
2023/10/05 12:55:18;;;;;;;0.83;0.83;;;17.30;99.90;;;;;;4975010;28;20554;-71
2023/10/05 12:57:46;;;;;;;1.13;1.03;;;17.30;99.90;;;;;;4974561;28;20974;-72
2023/10/05 13:00:21;;;;;;;3.77;1.27;;;17.40;99.90;;;;;;4974856;28;20547;-71
2023/10/05 13:02:51;;;;;;;1.53;1.47;;;17.50;99.90;;;;;;4975371;28;20954;-71
2023/10/05 13:05:21;;;;;;;2.57;1.00;;;17.60;99.90;;;;;;4975373;28;20500;-71
2023/10/05 13:07:48;;;;;;;1.33;1.30;;;17.70;99.90;;;;;;4973866;28;20467;-72
2023/10/05 13:10:21;;;;;;;7.20;0.90;;;17.70;99.90;;;;;;4974403;28;20499;-71
2023/10/05 13:12:49;;;;;;;5.00;1.20;;;17.70;99.90;;;;;;4974430;28;20497;-72
2023/10/05 13:15:19;;;;;;;3.70;1.33;;;17.70;99.90;;;;;;4974138;28;20474;-72
2023/10/05 13:17:47;;;;;;;2.10;0.73;;;17.80;99.90;;;;;;4977171;28;20461;-72
2023/10/05 13:20:23;;;;;;;2.70;1.30;;;17.90;99.90;;;;;;4974067;28;20476;-72
2023/10/05 13:22:53;;;;;;;2.13;1.03;;;17.90;99.90;;;;;;4973525;28;20476;-71
2023/10/05 13:25:22;;;;;;;1.30;1.20;;;17.90;99.90;;;;;;4971406;28;20492;-72
2023/10/05 13:27:52;;;;;;;0.70;0.70;;;18.00;99.90;;;;;;4975431;28;20462;-72
2023/10/05 13:30:23;;;;;;;2.13;1.00;;;18.10;99.90;;;;;;4975047;28;20472;-72
2023/10/05 13:32:57;;;;;;;2.83;0.70;;;18.30;99.90;;;;;;4974712;28;20888;-72
2023/10/05 13:35:29;;;;;;;2.00;1.10;;;18.30;99.90;;;;;;4969345;28;20464;-71
2023/10/05 13:37:57;;;;;;;1.00;0.97;;;18.40;99.90;;;;;;4976384;28;20541;-70
2023/10/05 13:40:34;;;;;;;2.67;0.80;;;18.50;99.90;;;;;;4979109;28;20520;-72
2023/10/05 13:43:01;;;;;;;1.70;0.70;;;18.50;99.90;;;;;;4978635;28;20505;-72
2023/10/05 13:45:29;;;;;;;2.93;0.87;;;18.50;99.90;;;;;;4977370;28;20492;-73
2023/10/05 13:47:56;;;;;;;2.13;0.97;;;18.50;99.90;;;;;;4975443;28;20470;-72
2023/10/05 13:50:24;;;;;;;1.00;1.00;;;18.60;99.90;;;;;;4975406;28;20467;-72
2023/10/05 13:52:53;;;;;;;2.30;0.87;;;18.50;99.90;;;;;;4974910;28;20467;-72
2023/10/05 13:55:23;;;;;;;0.63;0.63;;;18.50;99.90;;;;;;4973588;28;20460;-72
2023/10/05 13:57:50;;;;;;;3.23;0.63;;;18.50;99.90;;;;;;4975130;28;20474;-72
2023/10/05 14:00:19;;;;;;;0.80;0.80;;;18.40;99.90;;;;;;4969368;28;20474;-73
2023/10/05 14:02:47;;;;;;;4.37;0.77;;;18.40;99.90;;;;;;4969055;28;20508;-73
2023/10/05 14:05:14;;;;;;;2.23;0.80;;;18.50;99.90;;;;;;4973144;28;20486;-72
2023/10/05 14:07:42;;;;;;;2.90;0.93;;;18.60;99.90;;;;;;4972610;28;20481;-73
2023/10/05 14:10:10;;;;;;;4.23;1.60;;;18.60;99.90;;;;;;4971743;28;20554;-73
2023/10/05 14:12:39;;;;;;;0.97;0.70;;;18.60;99.90;;;;;;4973322;28;20498;-71
2023/10/05 14:15:08;;;;;;;0.97;0.70;;;18.60;99.90;;;;;;4973794;28;20949;-71
2023/10/05 14:17:37;;;;;;;3.17;0.80;;;18.60;99.90;;;;;;4973021;28;20831;-71
2023/10/05 14:20:06;;;;;;;1.43;1.00;;;18.50;99.90;;;;;;4972083;28;20515;-71
2023/10/05 14:22:33;;;;;;;1.40;1.13;;;18.40;99.90;;;;;;4973664;28;20488;-71
2023/10/05 14:25:07;;;;;;;1.37;0.67;;;18.30;99.90;;;;;;4973691;28;20854;-71
2023/10/05 14:27:34;;;;;;;1.70;0.80;;;18.20;99.90;;;;;;4968137;28;20893;-71
2023/10/05 14:30:06;;;;;;;4.30;1.17;;;18.20;99.90;;;;;;4973771;28;20461;-71
2023/10/05 14:32:36;;;;;;;1.80;0.80;;;18.10;99.90;;;;;;4973983;28;20499;-71
2023/10/05 14:35:07;;;;;;;2.40;0.90;;;18.20;99.90;;;;;;4973551;28;20471;-71
2023/10/05 14:37:34;;;;;;;2.77;1.33;;;18.20;99.90;;;;;;4973327;28;21014;-71
2023/10/05 14:40:02;;;;;;;2.20;1.20;;;18.30;99.90;;;;;;4972177;28;20492;-71
2023/10/05 14:42:31;;;;;;;1.33;0.57;;;18.20;99.90;;;;;;4968752;28;20484;-71
2023/10/05 14:44:57;;;;;;;1.90;1.13;;;18.20;99.90;;;;;;4972715;28;20489;-71
2023/10/05 14:47:24;;;;;;;1.67;1.30;;;18.20;99.90;;;;;;4972277;28;20477;-71
2023/10/05 14:49:51;;;;;;;3.43;1.30;;;18.20;99.90;;;;;;4972175;28;20476;-71
2023/10/05 14:52:18;;;;;;;6.40;1.30;;;18.20;99.90;;;;;;4973746;28;20487;-71
2023/10/05 14:54:44;;;;;;;0.63;0.63;;;18.20;99.90;;;;;;4972034;28;20469;-71
2023/10/05 14:57:12;;;;;;;1.70;0.90;;;18.20;99.90;;;;;;4967118;28;20617;-71
2023/10/05 14:59:40;;;;;;;1.17;0.60;;;18.10;99.90;;;;;;4973642;28;20503;-71
2023/10/05 15:02:07;;;;;;;1.63;0.83;;;18.10;99.90;;;;;;4970590;28;20527;-71
2023/10/05 15:04:35;;;;;;;1.50;1.23;;;18.00;99.90;;;;;;4969464;28;20579;-71
2023/10/05 15:07:01;;;;;;;1.10;0.90;;;18.00;99.90;;;;;;4967629;28;20469;-71
2023/10/05 15:09:29;;;;;;;0.70;0.70;;;17.90;99.90;;;;;;4974052;28;20464;-71
2023/10/05 15:11:56;;;;;;;4.67;0.97;;;17.80;99.90;;;;;;4973265;28;20983;-71
2023/10/05 15:14:24;;;;;;;0.80;0.80;;;17.70;99.90;;;;;;4972339;28;20958;-71
2023/10/05 15:16:52;;;;;;;2.60;1.77;;;17.70;99.90;;;;;;4968727;28;20476;-72
2023/10/05 15:19:19;;;;;;;0.60;0.60;;;17.70;99.90;;;;;;4973257;28;20470;-70
2023/10/05 15:21:46;;;;;;;1.43;0.97;;;17.60;99.90;;;;;;4972445;28;20519;-71
2023/10/05 15:24:13;;;;;;;1.50;0.87;;;17.50;99.90;;;;;;4973492;28;20514;-70
2023/10/05 15:26:41;;;;;;;1.90;0.70;;;17.40;99.90;;;;;;4973384;28;20911;-71
2023/10/05 15:29:09;;;;;;;1.13;0.80;;;17.30;99.90;;;;;;4973859;28;20841;-71
2023/10/05 15:31:37;;;;;;;2.67;0.80;;;17.30;99.90;;;;;;4973645;28;20583;-71
2023/10/05 15:34:04;;;;;;;0.80;0.80;;;17.30;99.90;;;;;;4973607;28;20479;-71
2023/10/05 15:36:30;;;;;;;4.87;0.77;;;17.20;99.90;;;;;;4974018;28;21012;-71
2023/10/05 15:38:58;;;;;;;4.17;1.00;;;17.10;99.90;;;;;;4973726;28;20463;-71
2023/10/05 15:41:26;;;;;;;1.67;1.20;;;17.00;99.90;;;;;;4973638;28;20477;-70
2023/10/05 15:43:52;;;;;;;3.23;1.00;;;17.00;99.90;;;;;;4973381;28;20474;-71
2023/10/05 15:46:19;;;;;;;3.03;0.73;;;16.90;99.90;;;;;;4973741;28;20497;-70
2023/10/05 15:48:47;;;;;;;0.87;0.87;;;16.90;99.90;;;;;;4973842;28;20525;-71
2023/10/05 15:51:14;;;;;;;0.73;0.60;;;16.80;99.90;;;;;;4973912;28;20491;-70
2023/10/05 15:53:51;;;;;;;3.13;1.13;;;16.70;99.90;;;;;;4973787;28;20471;-70
2023/10/05 15:56:19;;;;;;;2.87;1.43;;;16.70;99.90;;;;;;4973670;28;20547;-70
2023/10/05 15:58:45;;;;;;;3.07;1.40;;;16.60;99.90;;;;;;4973878;28;20494;-71
2023/10/05 16:01:12;;;;;;;1.87;1.10;;;16.60;99.90;;;;;;4973294;28;20502;-71
2023/10/05 16:03:39;;;;;;;0.77;0.77;;;16.60;99.90;;;;;;4973460;28;20463;-70
2023/10/05 16:06:08;;;;;;;1.70;1.10;;;16.50;99.90;;;;;;4973242;28;20998;-70
2023/10/05 16:08:35;;;;;;;2.63;1.17;;;16.50;99.90;;;;;;4972844;28;20474;-70
2023/10/05 16:11:02;;;;;;;3.53;1.27;;;16.40;99.90;;;;;;4972452;28;20497;-70
2023/10/05 16:13:31;;;;;;;3.90;1.70;;;16.30;99.90;;;;;;4972797;28;20524;-70
2023/10/05 16:15:58;;;;;;;1.50;1.50;;;16.30;99.90;;;;;;4972997;28;20842;-70
2023/10/05 16:18:25;;;;;;;0.93;0.80;;;16.20;99.90;;;;;;4973389;28;20475;-70
2023/10/05 16:20:53;;;;;;;0.70;0.70;;;16.10;99.90;;;;;;4973748;28;20491;-71
2023/10/05 16:23:21;;;;;;;4.37;1.13;;;16.10;99.90;;;;;;4973037;28;20471;-71
2023/10/05 16:25:47;;;;;;;1.70;1.03;;;16.00;99.90;;;;;;4972702;28;20841;-70
2023/10/05 16:28:14;;;;;;;0.80;0.80;;;15.90;99.90;;;;;;4972733;28;20957;-70
2023/10/05 16:30:41;;;;;;;5.00;1.30;;;15.80;99.90;;;;;;4972662;28;20491;-71
2023/10/05 16:33:09;;;;;;;1.33;0.80;;;15.80;99.90;;;;;;4972580;28;20477;-70
2023/10/05 16:35:39;;;;;;;1.60;1.50;;;15.70;99.90;;;;;;4972497;28;20478;-70
2023/10/05 16:38:06;;;;;;;1.70;1.60;;;15.70;99.90;;;;;;4972196;28;20467;-71
2023/10/05 16:40:34;;;;;;;3.37;1.47;;;15.60;99.90;;;;;;4973956;28;20493;-70
2023/10/05 16:43:02;;;;;;;4.63;2.90;;;15.60;99.90;;;;;;4975604;28;20465;-71
2023/10/05 16:45:29;;;;;;;8.13;7.27;;;15.60;99.90;;;;;;4978403;28;20576;-71
2023/10/05 16:47:55;;;;;;;18.20;3.93;;;15.60;99.90;;;;;;4976058;28;20843;-71
2023/10/05 16:50:25;;;;;;;1.97;1.80;;;15.50;99.90;;;;;;4975832;28;20463;-71
2023/10/05 16:52:52;;;;;;;2.47;1.70;;;15.50;99.90;;;;;;4976450;28;20467;-71
2023/10/05 16:55:21;;;;;;;1.00;1.00;;;15.50;99.90;;;;;;4978377;28;20470;-71
2023/10/05 16:57:51;;;;;;;1.53;1.23;;;15.40;99.90;;;;;;4976167;28;20541;-70